Time;durP1;ratioP1;P1;durP2;ratioP2;P2;SDS_P1;SDS_P2;PMS_P1;PMS_P2;Temp;Humidity;BMP_temperature;BMP_pressure;BME280_temperature;BME280_humidity;BME280_pressure;Samples;Min_cycle;Max_cycle;Signal;HPM_P1;HPM_P2
2022/06/03 00:02:18;;;;;;;8.17;6.13;;;;;12.50;101306.00;;;;10467279;28;20205;-81
2022/06/03 00:08:07;;;;;;;5.67;5.07;;;;;12.40;101317.00;;;;10459807;28;20221;-81
2022/06/03 00:13:33;;;;;;;7.37;5.23;;;;;12.40;101311.00;;;;10380768;28;20219;-80
2022/06/03 00:18:54;;;;;;;5.67;5.07;;;;;12.30;101306.00;;;;10423986;28;20205;-81
2022/06/03 00:24:17;;;;;;;8.43;5.57;;;;;12.30;101295.00;;;;10492899;28;20247;-81
2022/06/03 00:29:22;;;;;;;7.43;5.30;;;;;12.20;101296.00;;;;10503314;28;20266;-80
2022/06/03 00:34:53;;;;;;;7.30;5.47;;;;;12.10;101296.00;;;;10472348;28;20256;-81
2022/06/03 00:39:54;;;;;;;7.23;5.37;;;;;12.00;101296.00;;;;10478058;28;20280;-80
2022/06/03 00:45:28;;;;;;;7.53;5.50;;;;;12.00;101297.00;;;;10475047;28;20218;-81
2022/06/03 00:50:43;;;;;;;5.83;5.20;;;;;11.90;101297.00;;;;10475148;28;20259;-80
2022/06/03 00:56:17;;;;;;;9.13;5.20;;;;;11.90;101290.00;;;;10429876;28;20178;-80
2022/06/03 01:01:25;;;;;;;7.67;5.40;;;;;11.90;101286.00;;;;10436048;28;20198;-81
2022/06/03 01:06:51;;;;;;;9.00;5.33;;;;;11.80;101270.00;;;;10439848;28;20225;-81
2022/06/03 01:12:34;;;;;;;5.27;4.77;;;;;11.80;101277.00;;;;10471855;28;20225;-81
2022/06/03 01:17:51;;;;;;;6.17;5.17;;;;;11.70;101275.00;;;;10453127;28;20184;-81
2022/06/03 01:23:09;;;;;;;6.80;5.40;;;;;11.60;101273.00;;;;10476571;28;20198;-81
2022/06/03 01:28:39;;;;;;;5.73;5.20;;;;;11.50;101268.00;;;;10440272;28;20343;-81
2022/06/03 01:34:02;;;;;;;6.60;5.23;;;;;11.40;101270.00;;;;10449154;28;20197;-81
2022/06/03 01:39:51;;;;;;;5.93;5.43;;;;;11.40;101271.00;;;;10456818;28;20193;-81
2022/06/03 01:45:14;;;;;;;5.90;5.33;;;;;11.20;101265.00;;;;10468981;28;20572;-81
2022/06/03 01:50:26;;;;;;;5.73;5.13;;;;;11.10;101273.00;;;;10474453;28;20227;-81
2022/06/03 01:56:14;;;;;;;8.33;6.40;;;;;11.00;101248.00;;;;10407180;28;20240;-80
2022/06/03 02:01:43;;;;;;;6.93;5.53;;;;;10.90;101250.00;;;;10443901;28;20196;-81
2022/06/03 02:07:13;;;;;;;7.13;5.83;;;;;10.70;101245.00;;;;10450918;28;20216;-81
2022/06/03 02:12:28;;;;;;;6.37;5.67;;;;;10.60;101249.00;;;;10426058;28;20194;-81
2022/06/03 02:18:19;;;;;;;7.23;5.77;;;;;10.40;101257.00;;;;10433830;28;20219;-81
2022/06/03 02:23:53;;;;;;;8.57;6.60;;;;;10.30;101249.00;;;;10442729;28;20511;-81
2022/06/03 02:35:15;;;;;;;8.63;6.53;;;;;10.00;101240.00;;;;10486557;28;20590;-81
2022/06/03 02:40:39;;;;;;;7.33;6.00;;;;;10.00;101239.00;;;;10454597;28;20259;-81
2022/06/03 02:46:07;;;;;;;10.10;6.20;;;;;9.90;101228.00;;;;10471091;28;20703;-81
2022/06/03 02:51:18;;;;;;;7.13;6.43;;;;;9.90;101235.00;;;;10477789;28;20275;-80
2022/06/03 02:56:42;;;;;;;7.43;6.73;;;;;9.90;101234.00;;;;10450317;28;20189;-80
2022/06/03 03:01:56;;;;;;;8.93;6.83;;;;;10.00;101223.00;;;;10480539;28;20256;-80
2022/06/03 03:07:45;;;;;;;9.90;7.50;;;;;10.20;101223.00;;;;10440936;28;20312;-81
2022/06/03 03:12:59;;;;;;;10.83;7.67;;;;;10.30;101218.00;;;;10457244;28;20224;-81
2022/06/03 03:18:41;;;;;;;8.17;7.37;;;;;10.40;101210.00;;;;10454980;28;20265;-81
2022/06/03 03:23:48;;;;;;;9.97;8.07;;;;;10.50;101209.00;;;;10452776;28;20186;-81
2022/06/03 03:29:22;;;;;;;8.73;7.57;;;;;10.50;101208.00;;;;10470310;28;20279;-81
2022/06/03 03:34:51;;;;;;;9.03;8.13;;;;;10.40;101202.00;;;;10431308;28;20202;-81
2022/06/03 03:40:22;;;;;;;9.40;7.57;;;;;10.30;101200.00;;;;10454927;28;20682;-81
2022/06/03 03:45:54;;;;;;;8.43;7.63;;;;;10.20;101200.00;;;;10444392;28;20229;-81
2022/06/03 03:51:18;;;;;;;8.50;7.43;;;;;10.10;101197.00;;;;10438024;28;20236;-80
2022/06/03 03:57:03;;;;;;;9.00;7.13;;;;;10.00;101202.00;;;;10438194;28;20198;-80
2022/06/03 04:02:20;;;;;;;8.70;7.87;;;;;10.00;101200.00;;;;10444993;28;20192;-81
2022/06/03 04:07:43;;;;;;;10.60;7.73;;;;;10.10;101202.00;;;;10452741;28;20278;-80
2022/06/03 04:13:00;;;;;;;9.30;6.97;;;;;10.20;101208.00;;;;10444727;28;20689;-80
2022/06/03 04:18:42;;;;;;;9.40;8.50;;;;;10.50;101199.00;;;;10479569;28;20216;-80
2022/06/03 04:24:06;;;;;;;8.93;8.10;;;;;10.70;101203.00;;;;10468228;28;20667;-80
2022/06/03 04:29:35;;;;;;;9.00;7.43;;;;;10.70;101210.00;;;;10491618;28;20231;-81
2022/06/03 04:34:39;;;;;;;10.00;7.47;;;;;10.70;101209.00;;;;10462233;28;20207;-81
2022/06/03 04:40:23;;;;;;;9.77;7.60;;;;;10.70;101203.00;;;;10443463;28;20197;-81
2022/06/03 04:45:48;;;;;;;8.27;7.43;;;;;11.00;101200.00;;;;10441698;28;20221;-80
2022/06/03 04:51:14;;;;;;;8.37;7.50;;;;;11.30;101205.00;;;;10428468;28;20205;-80
2022/06/03 04:56:52;;;;;;;9.47;7.63;;;;;11.70;101201.00;;;;10471722;28;20189;-80
2022/06/03 05:02:37;;;;;;;10.13;8.03;;;;;12.20;101196.00;;;;10462504;28;20190;-81
2022/06/03 05:08:07;;;;;;;8.37;7.50;;;;;12.80;101210.00;;;;10452568;28;20212;-81
2022/06/03 05:13:36;;;;;;;7.90;7.20;;;;;13.40;101203.00;;;;10480731;28;20257;-80
2022/06/03 05:18:42;;;;;;;7.40;6.57;;;;;13.80;101203.00;;;;10429742;28;20196;-81
2022/06/03 05:24:06;;;;;;;8.20;6.90;;;;;14.30;101191.00;;;;10474096;28;20204;-81
2022/06/03 05:29:52;;;;;;;8.30;5.70;;;;;14.90;101191.00;;;;10461056;28;20233;-81
2022/06/03 05:35:28;;;;;;;8.40;5.90;;;;;15.50;101189.00;;;;10419268;28;20221;-81
2022/06/03 05:40:39;;;;;;;7.90;5.70;;;;;15.90;101202.00;;;;10420732;28;20256;-81
2022/06/03 05:46:14;;;;;;;5.93;5.10;;;;;16.40;101194.00;;;;10492091;28;20743;-81
2022/06/03 05:51:42;;;;;;;7.53;5.87;;;;;17.10;101196.00;;;;10480402;28;20284;-81
2022/06/03 05:56:51;;;;;;;10.17;6.07;;;;;17.30;101187.00;;;;10438597;28;20206;-81
2022/06/03 06:02:23;;;;;;;9.38;5.32;;;;;17.70;101188.00;;;;10460581;28;20193;-81
2022/06/03 06:07:50;;;;;;;6.57;4.85;;;;;18.10;101180.00;;;;10478092;28;20668;-80
2022/06/03 06:13:21;;;;;;;6.72;5.05;;;;;18.50;101185.00;;;;10439649;28;20209;-81
2022/06/03 06:18:55;;;;;;;6.15;4.50;;;;;18.80;101195.00;;;;10478117;28;20247;-82
2022/06/03 06:24:16;;;;;;;5.68;4.95;;;;;19.20;101198.00;;;;10433237;28;20224;-81
2022/06/03 06:29:18;;;;;;;5.07;4.55;;;;;19.20;101201.00;;;;10452860;28;20212;-81
2022/06/03 06:34:49;;;;;;;5.80;5.10;;;;;19.80;101182.00;;;;10443792;28;20206;-81
2022/06/03 06:40:26;;;;;;;10.02;5.03;;;;;20.20;101174.00;;;;10433658;28;20276;-81
2022/06/03 06:45:58;;;;;;;4.90;4.13;;;;;20.80;101181.00;;;;10460297;28;20228;-81
2022/06/03 06:51:23;;;;;;;6.18;4.40;;;;;21.00;101199.00;;;;10440487;28;20201;-81
2022/06/03 06:56:35;;;;;;;7.53;4.50;;;;;20.80;101197.00;;;;10411040;28;20239;-81
2022/06/03 07:01:46;;;;;;;6.85;4.35;;;;;21.10;101201.00;;;;10479980;28;20193;-81
2022/06/03 07:06:53;;;;;;;6.88;4.50;;;;;21.20;101185.00;;;;10452405;28;20206;-82
2022/06/03 07:12:10;;;;;;;7.18;4.55;;;;;21.30;101194.00;;;;10447533;28;20197;-82
2022/06/03 07:22:56;;;;;;;7.80;4.22;;;;;22.30;101181.00;;;;10451277;28;20556;-82
2022/06/03 07:28:06;;;;;;;4.75;4.28;;;;;23.00;101185.00;;;;10440310;28;20419;-81
2022/06/03 07:34:01;;;;;;;4.35;3.80;;;;;23.30;101174.00;;;;10455568;28;20661;-82
2022/06/03 07:39:20;;;;;;;8.05;3.53;;;;;23.60;101169.00;;;;10456048;28;20193;-81
2022/06/03 07:44:28;;;;;;;4.32;3.60;;;;;23.80;101173.00;;;;10424285;28;20537;-82
2022/06/03 07:49:34;;;;;;;5.85;3.50;;;;;24.30;101163.00;;;;10431648;28;20211;-82
2022/06/03 07:54:40;;;;;;;3.55;3.08;;;;;24.60;101157.00;;;;10446678;28;20185;-81
2022/06/03 07:59:42;;;;;;;3.58;3.28;;;;;24.80;101147.00;;;;10414646;28;20216;-81
2022/06/03 08:04:47;;;;;;;3.45;2.25;;;;;25.10;101146.00;;;;10434419;28;20205;-82
2022/06/03 08:15:35;;;;;;;2.47;2.28;;;;;25.70;101140.00;;;;10367832;28;20198;-82
2022/06/03 08:20:47;;;;;;;3.38;2.20;;;;;26.40;101137.00;;;;10449617;28;20708;-81
2022/06/03 08:25:54;;;;;;;3.55;2.08;;;;;26.90;101151.00;;;;10422627;28;20222;-80
2022/06/03 08:30:57;;;;;;;3.15;1.80;;;;;27.60;101148.00;;;;10426587;28;20522;-80
2022/06/03 08:36:00;;;;;;;4.53;1.85;;;;;27.50;101141.00;;;;10457001;28;20225;-80
2022/06/03 08:41:40;;;;;;;5.25;2.13;;;;;28.30;101140.00;;;;10436256;28;20193;-81
2022/06/03 08:46:58;;;;;;;3.75;1.70;;;;;29.20;101141.00;;;;10476688;28;20564;-80
2022/06/03 08:52:06;;;;;;;4.47;1.52;;;;;28.90;101145.00;;;;10464973;28;20280;-80
2022/06/03 08:57:23;;;;;;;1.75;1.65;;;;;28.80;101142.00;;;;10464879;28;20200;-80
2022/06/03 09:02:53;;;;;;;5.55;1.83;;;;;28.90;101145.00;;;;10432883;28;20202;-80
2022/06/03 09:08:16;;;;;;;3.45;2.05;;;;;28.80;101140.00;;;;10472196;28;20327;-80
2022/06/03 09:13:33;;;;;;;2.20;1.80;;;;;29.20;101144.00;;;;10403125;28;20197;-80
2022/06/03 09:18:42;;;;;;;3.35;1.67;;;;;29.80;101139.00;;;;10432531;28;20190;-81
2022/06/03 09:23:51;;;;;;;6.25;1.70;;;;;30.20;101145.00;;;;10426826;28;20201;-80
2022/06/03 09:28:55;;;;;;;2.35;1.80;;;;;30.60;101139.00;;;;10471842;28;20214;-80
2022/06/03 09:33:58;;;;;;;4.70;1.63;;;;;29.60;101145.00;;;;10450183;28;20193;-81
2022/06/03 09:39:12;;;;;;;3.58;1.50;;;;;28.10;101144.00;;;;10441848;28;20238;-80
2022/06/03 09:44:18;;;;;;;2.08;1.30;;;;;27.40;101141.00;;;;10418574;28;20190;-80
2022/06/03 09:49:20;;;;;;;2.25;1.55;;;;;27.70;101125.00;;;;10457974;28;20648;-80
2022/06/03 09:54:38;;;;;;;3.72;1.65;;;;;27.40;101129.00;;;;10451605;28;20201;-80
2022/06/03 09:59:50;;;;;;;3.55;1.70;;;;;28.60;101124.00;;;;10438973;28;20240;-80
2022/06/03 10:04:52;;;;;;;3.78;1.50;;;;;29.20;101119.00;;;;10489712;28;20312;-80
2022/06/03 10:15:42;;;;;;;2.92;1.98;;;;;28.10;101113.00;;;;10466632;28;20645;-81
2022/06/03 10:20:46;;;;;;;1.90;1.60;;;;;27.80;101102.00;;;;10443404;28;20188;-81
2022/06/03 10:25:49;;;;;;;6.32;1.60;;;;;28.10;101100.00;;;;10431972;28;20202;-81
2022/06/03 10:31:00;;;;;;;2.20;1.30;;;;;29.60;101094.00;;;;10439408;28;20284;-80
2022/06/03 10:36:04;;;;;;;3.17;1.80;;;;;30.50;101105.00;;;;10455634;28;20284;-80
2022/06/03 10:41:10;;;;;;;1.92;1.10;;;;;30.40;101108.00;;;;10453734;28;20220;-81
2022/06/03 10:46:15;;;;;;;4.43;1.23;;;;;30.90;101092.00;;;;10428706;28;20193;-80
2022/06/03 11:02:25;;;;;;;2.22;1.50;;;;;31.70;101101.00;;;;10439238;28;20216;-80
2022/06/03 11:07:30;;;;;;;3.88;1.40;;;;;31.90;101094.00;;;;10468445;28;20202;-80
2022/06/03 11:12:33;;;;;;;2.05;1.27;;;;;31.60;101094.00;;;;10413940;28;20277;-80
2022/06/03 11:17:37;;;;;;;2.67;1.40;;;;;31.10;101090.00;;;;10429710;28;20210;-81
2022/06/03 11:22:40;;;;;;;4.07;1.23;;;;;30.70;101093.00;;;;10434609;28;20659;-81
2022/06/03 11:27:45;;;;;;;2.15;1.30;;;;;30.60;101092.00;;;;10429376;28;20206;-81
2022/06/03 11:32:52;;;;;;;2.63;1.15;;;;;30.00;101105.00;;;;10470348;28;20602;-80
2022/06/03 11:37:57;;;;;;;1.30;1.13;;;;;29.90;101099.00;;;;10415483;28;20202;-81
2022/06/03 11:43:17;;;;;;;2.45;1.10;;;;;30.10;101087.00;;;;10412020;28;20256;-81
2022/06/03 11:48:44;;;;;;;1.52;1.05;;;;;30.10;101079.00;;;;10436900;28;20209;-80
2022/06/03 11:53:48;;;;;;;3.22;1.55;;;;;30.10;101079.00;;;;10444068;28;20187;-80
2022/06/03 11:59:09;;;;;;;5.47;1.50;;;;;30.30;101075.00;;;;10436023;28;20576;-80
2022/06/03 12:04:39;;;;;;;2.17;1.20;;;;;30.60;101070.00;;;;10463333;28;20205;-80
2022/06/03 12:10:17;;;;;;;7.50;1.65;;;;;31.40;101078.00;;;;10432169;28;20204;-80
2022/06/03 12:15:35;;;;;;;1.15;1.05;;;;;30.90;101070.00;;;;10450504;28;20202;-81
2022/06/03 12:20:49;;;;;;;1.90;1.30;;;;;30.40;101072.00;;;;10467809;28;20209;-81
2022/06/03 12:25:51;;;;;;;2.03;1.30;;;;;30.40;101075.00;;;;10482844;28;20233;-80
2022/06/03 12:30:57;;;;;;;1.80;1.02;;;;;30.40;101072.00;;;;10435585;28;20192;-80
2022/06/03 12:36:06;;;;;;;2.38;1.10;;;;;30.70;101068.00;;;;10475382;28;20255;-81
2022/06/03 12:41:09;;;;;;;3.15;1.10;;;;;30.50;101073.00;;;;10441855;28;20219;-80
2022/06/03 12:46:36;;;;;;;2.08;1.48;;;;;30.50;101071.00;;;;10452902;28;20190;-81
2022/06/03 12:51:57;;;;;;;1.92;1.20;;;;;30.60;101070.00;;;;10417499;28;20196;-81
2022/06/03 12:57:08;;;;;;;5.95;1.30;;;;;31.00;101071.00;;;;10422784;28;20210;-81
2022/06/03 13:02:16;;;;;;;4.63;1.17;;;;;30.90;101064.00;;;;10457872;28;20205;-81
2022/06/03 13:07:27;;;;;;;1.60;1.20;;;;;31.20;101059.00;;;;10439833;28;20209;-81
2022/06/03 13:12:35;;;;;;;1.27;1.17;;;;;31.50;101055.00;;;;10473557;28;20273;-81
2022/06/03 13:18:09;;;;;;;1.20;1.10;;;;;31.70;101055.00;;;;10458086;28;20267;-81
2022/06/03 13:23:42;;;;;;;2.97;1.30;;;;;31.30;101057.00;;;;10449363;28;20190;-82
2022/06/03 13:28:48;;;;;;;1.48;1.10;;;;;31.60;101062.00;;;;10450478;28;20284;-81
2022/06/03 13:34:08;;;;;;;3.15;1.30;;;;;31.10;101066.00;;;;10474419;28;20193;-81
2022/06/03 13:39:24;;;;;;;2.70;1.30;;;;;30.70;101065.00;;;;10457079;28;20610;-81
2022/06/03 13:44:46;;;;;;;3.55;1.40;;;;;30.40;101067.00;;;;10400868;28;20182;-82
2022/06/03 13:49:49;;;;;;;1.20;1.10;;;;;30.60;101066.00;;;;10418080;28;20197;-81
2022/06/03 13:55:09;;;;;;;4.63;1.60;;;;;30.50;101076.00;;;;10441956;28;20194;-81
2022/06/03 14:00:23;;;;;;;2.30;1.20;;;;;30.00;101076.00;;;;10443639;28;20217;-81
2022/06/03 14:05:33;;;;;;;5.38;1.55;;;;;29.40;101064.00;;;;10441886;28;20225;-80
2022/06/03 14:10:46;;;;;;;1.48;1.10;;;;;29.00;101077.00;;;;10455383;28;20194;-81
2022/06/03 14:15:51;;;;;;;3.17;1.33;;;;;28.60;101082.00;;;;10459837;28;20228;-83
2022/06/03 14:20:53;;;;;;;2.65;1.40;;;;;28.60;101079.00;;;;10435355;28;20262;-82
2022/06/03 14:26:13;;;;;;;1.60;1.15;;;;;28.60;101073.00;;;;10418022;28;20665;-83
2022/06/03 14:31:46;;;;;;;3.35;1.33;;;;;29.00;101060.00;;;;10436946;28;20204;-83
2022/06/03 14:36:52;;;;;;;3.38;1.77;;;;;30.30;101065.00;;;;10460761;28;20202;-83
2022/06/03 14:41:56;;;;;;;6.05;1.90;;;;;31.40;101058.00;;;;10442250;28;20194;-82
2022/06/03 14:47:03;;;;;;;4.72;1.58;;;;;31.40;101054.00;;;;10440684;28;20223;-83
2022/06/03 14:52:12;;;;;;;4.43;1.52;;;;;31.90;101054.00;;;;10415774;28;20606;-83
2022/06/03 14:57:30;;;;;;;2.65;1.65;;;;;33.40;101041.00;;;;10421228;28;20217;-83
2022/06/03 15:03:29;;;;;;;2.85;1.75;;;;;32.80;101042.00;;;;10433225;28;20674;-83
2022/06/03 15:08:42;;;;;;;3.95;2.20;;;;;33.00;101030.00;;;;10346506;28;20196;-83
2022/06/03 15:13:48;;;;;;;5.63;2.10;;;;;35.30;101040.00;;;;10431132;28;20190;-83
2022/06/03 15:18:50;;;;;;;3.65;2.30;;;;;36.10;101030.00;;;;10452805;28;20214;-81
2022/06/03 15:23:55;;;;;;;3.15;2.20;;;;;34.60;101046.00;;;;10434693;28;20190;-82
2022/06/03 15:29:05;;;;;;;2.08;1.88;;;;;32.00;101038.00;;;;10450259;28;20193;-82
2022/06/03 15:34:11;;;;;;;3.03;1.83;;;;;31.20;101036.00;;;;10443385;28;20637;-84
2022/06/03 15:39:16;;;;;;;3.47;1.60;;;;;30.30;101038.00;;;;10452664;28;20198;-82
2022/06/03 15:44:42;;;;;;;3.58;1.90;;;;;30.20;101035.00;;;;10444236;28;20191;-83
2022/06/03 15:49:50;;;;;;;4.72;1.83;;;;;29.90;101023.00;;;;10462573;28;20289;-83
2022/06/03 15:54:55;;;;;;;3.13;1.65;;;;;29.30;101024.00;;;;10456607;28;20198;-81
2022/06/03 16:00:05;;;;;;;4.32;1.77;;;;;29.10;101024.00;;;;10404981;28;20587;-81
2022/06/03 16:05:09;;;;;;;3.35;1.70;;;;;28.60;101024.00;;;;10447575;28;20221;-81
2022/06/03 16:10:19;;;;;;;3.28;2.03;;;;;28.10;101023.00;;;;10442096;28;20193;-81
2022/06/03 16:15:44;;;;;;;4.10;1.90;;;;;27.70;101016.00;;;;10471173;28;20198;-81
2022/06/03 16:20:53;;;;;;;3.97;1.65;;;;;27.70;101022.00;;;;10456265;28;20225;-80
2022/06/03 16:26:05;;;;;;;3.17;1.95;;;;;27.60;101034.00;;;;10464391;28;20201;-82
2022/06/03 16:31:23;;;;;;;5.20;1.83;;;;;27.60;101036.00;;;;10463886;28;20280;-82
2022/06/03 16:36:52;;;;;;;3.85;2.15;;;;;27.50;101029.00;;;;10460868;28;20194;-82
2022/06/03 16:42:18;;;;;;;4.53;2.20;;;;;27.70;101017.00;;;;10456464;28;20186;-82
2022/06/03 16:47:48;;;;;;;2.05;1.60;;;;;27.60;101017.00;;;;10474841;28;20190;-82
2022/06/03 16:52:52;;;;;;;5.30;2.10;;;;;27.60;101022.00;;;;10473973;28;20197;-81
2022/06/03 16:58:13;;;;;;;4.25;1.65;;;;;27.10;101032.00;;;;10473627;28;20224;-81
2022/06/03 17:03:15;;;;;;;5.80;1.50;;;;;26.50;101035.00;;;;10431473;28;20221;-83
2022/06/03 17:08:39;;;;;;;5.28;1.90;;;;;26.20;101027.00;;;;10458087;28;20194;-81
2022/06/03 17:13:44;;;;;;;3.85;1.67;;;;;25.80;101028.00;;;;10475607;28;20189;-82
2022/06/03 17:18:49;;;;;;;5.43;1.77;;;;;25.60;101036.00;;;;10475911;28;20206;-82
2022/06/03 17:24:07;;;;;;;2.60;1.48;;;;;25.40;101032.00;;;;10458326;28;20185;-82
2022/06/03 17:29:22;;;;;;;4.05;1.85;;;;;25.20;101030.00;;;;10459055;28;20198;-81
2022/06/03 17:34:44;;;;;;;2.17;1.42;;;;;25.20;101024.00;;;;10463485;28;20243;-81
2022/06/03 17:40:01;;;;;;;5.03;1.77;;;;;25.20;101024.00;;;;10458110;28;20202;-82
2022/06/03 17:45:31;;;;;;;3.63;1.42;;;;;25.20;101025.00;;;;10485186;28;20193;-83
2022/06/03 17:50:55;;;;;;;2.72;1.30;;;;;25.10;101023.00;;;;10443188;28;20190;-84
2022/06/03 17:56:00;;;;;;;1.50;1.40;;;;;25.00;101018.00;;;;10480343;28;20197;-83
2022/06/03 18:01:17;;;;;;;3.97;1.42;;;;;24.90;101019.00;;;;10472683;28;20198;-82
2022/06/03 18:06:19;;;;;;;5.65;1.90;;;;;24.90;101018.00;;;;10473570;28;20220;-83
2022/06/03 18:11:44;;;;;;;2.63;1.50;;;;;24.80;101031.00;;;;10451198;28;20621;-83
2022/06/03 18:17:04;;;;;;;2.13;1.50;;;;;24.70;101028.00;;;;10479429;28;20197;-83
2022/06/03 18:22:35;;;;;;;3.28;1.60;;;;;24.50;101034.00;;;;10449149;28;20186;-83
2022/06/03 18:28:21;;;;;;;5.15;1.45;;;;;24.20;101030.00;;;;10432518;28;20205;-84
2022/06/03 18:33:57;;;;;;;6.72;1.60;;;;;24.10;101032.00;;;;10469476;28;20273;-83
2022/06/03 18:39:37;;;;;;;6.57;1.92;;;;;24.00;101035.00;;;;10472070;28;20194;-83
2022/06/03 18:45:17;;;;;;;6.13;1.90;;;;;23.80;101039.00;;;;10452218;28;20198;-83
2022/06/03 18:50:44;;;;;;;2.80;1.55;;;;;23.60;101042.00;;;;10460487;28;20198;-83
2022/06/03 18:55:54;;;;;;;3.55;1.35;;;;;23.40;101040.00;;;;10470912;28;20198;-83
2022/06/03 19:01:01;;;;;;;5.28;1.60;;;;;23.20;101034.00;;;;10456468;28;20281;-83
2022/06/03 19:06:36;;;;;;;6.82;1.85;;;;;23.00;101046.00;;;;10461833;28;20244;-83
2022/06/03 19:12:06;;;;;;;6.90;1.88;;;;;22.70;101054.00;;;;10453658;28;20190;-82
2022/06/03 19:18:04;;;;;;;5.07;1.73;;;;;22.50;101058.00;;;;10440483;28;20633;-82
2022/06/03 19:23:18;;;;;;;2.53;1.70;;;;;22.30;101067.00;;;;10444036;28;20227;-82
2022/06/03 19:28:23;;;;;;;7.43;1.70;;;;;22.10;101066.00;;;;10482058;28;20257;-82
2022/06/03 19:33:25;;;;;;;2.08;1.60;;;;;21.90;101074.00;;;;10477055;28;20190;-82
2022/06/03 19:38:33;;;;;;;2.70;2.10;;;;;21.80;101080.00;;;;10439460;28;20263;-82
2022/06/03 19:44:03;;;;;;;2.33;1.70;;;;;21.60;101086.00;;;;10453147;28;20205;-81
2022/06/03 19:49:27;;;;;;;3.10;1.90;;;;;21.50;101100.00;;;;10465172;28;20502;-82
2022/06/03 19:54:42;;;;;;;6.95;2.33;;;;;21.40;101104.00;;;;10488165;28;20196;-82
2022/06/03 20:00:06;;;;;;;3.95;1.80;;;;;21.30;101112.00;;;;10493926;28;20259;-82
2022/06/03 20:05:08;;;;;;;15.40;3.20;;;;;21.20;101114.00;;;;10460786;28;20281;-82
2022/06/03 20:10:14;;;;;;;5.40;1.80;;;;;21.20;101126.00;;;;10460585;28;20232;-82
2022/06/03 20:15:27;;;;;;;5.65;2.25;;;;;21.10;101140.00;;;;10444338;28;20687;-83
2022/06/03 20:20:36;;;;;;;770.00;420.25;;;;;21.00;101146.00;;;;10450955;28;20595;-83
2022/06/03 20:26:16;;;;;;;255.63;134.32;;;;;20.90;101162.00;;;;10459597;28;20218;-83
2022/06/03 20:31:21;;;;;;;22.58;12.75;;;;;20.70;101166.00;;;;10451526;28;20190;-82
2022/06/03 20:36:47;;;;;;;25.60;15.25;;;;;20.50;101172.00;;;;10461945;28;20186;-83
2022/06/03 20:42:02;;;;;;;8.63;5.32;;;;;20.20;101186.00;;;;10438208;28;20253;-83
2022/06/03 20:47:41;;;;;;;7.22;4.47;;;;;19.80;101175.00;;;;10451203;28;20194;-82
2022/06/03 20:52:57;;;;;;;8.68;3.95;;;;;19.40;101168.00;;;;10448896;28;20322;-82
2022/06/03 20:58:12;;;;;;;9.02;4.00;;;;;19.10;101172.00;;;;10454254;28;20263;-81
2022/06/03 21:14:11;;;;;;;4.40;3.22;;;;;18.30;101191.00;;;;10451239;28;20224;-81
2022/06/03 21:19:19;;;;;;;4.47;2.85;;;;;18.10;101190.00;;;;10460732;28;20296;-81
2022/06/03 21:24:44;;;;;;;2.90;2.55;;;;;17.90;101193.00;;;;10474326;28;20201;-81
2022/06/03 21:30:06;;;;;;;5.88;3.17;;;;;17.90;101208.00;;;;10453767;28;20181;-80
2022/06/03 21:36:00;;;;;;;4.03;3.00;;;;;17.90;101215.00;;;;10456189;28;20185;-81
2022/06/03 21:41:32;;;;;;;5.20;2.75;;;;;17.90;101215.00;;;;10455739;28;20211;-81
2022/06/03 21:47:33;;;;;;;4.38;3.13;;;;;17.80;101220.00;;;;10471746;28;20201;-81
2022/06/03 21:53:23;;;;;;;2.70;2.45;;;;;17.80;101222.00;;;;10386217;28;20192;-81
2022/06/03 21:59:21;;;;;;;3.60;3.30;;;;;17.80;101235.00;;;;10472280;28;20206;-82
2022/06/03 22:04:45;;;;;;;5.97;3.50;;;;;17.70;101238.00;;;;10451333;28;20224;-82
2022/06/03 22:10:10;;;;;;;4.30;3.90;;;;;17.60;101237.00;;;;10476715;28;20206;-82
2022/06/03 22:15:24;;;;;;;4.40;4.00;;;;;17.40;101238.00;;;;10442591;28;20198;-81
2022/06/03 22:20:31;;;;;;;7.47;4.63;;;;;17.30;101241.00;;;;10445566;28;20241;-82
2022/06/03 22:26:07;;;;;;;5.10;3.97;;;;;17.20;101246.00;;;;10443695;28;20694;-82
2022/06/03 22:31:30;;;;;;;4.17;3.80;;;;;17.20;101242.00;;;;10417243;28;20244;-82
2022/06/03 22:38:57;;;;;;;4.10;3.70;;;;;17.20;101245.00;;;;10466431;28;20198;-82
2022/06/03 22:43:05;;;;;;;5.97;4.23;;;;;17.30;101245.00;;;;10434550;28;20732;-82
2022/06/03 22:48:28;;;;;;;4.53;3.73;;;;;17.30;101234.00;;;;10474020;28;20236;-82
2022/06/03 22:53:33;;;;;;;6.20;3.50;;;;;17.40;101234.00;;;;10441679;28;20251;-82
2022/06/03 22:58:37;;;;;;;3.40;3.10;;;;;17.40;101222.00;;;;10420158;28;20243;-82
2022/06/03 23:03:39;;;;;;;5.63;3.43;;;;;17.50;101230.00;;;;10451449;28;20233;-83
2022/06/03 23:08:45;;;;;;;3.40;3.10;;;;;17.50;101236.00;;;;10415699;28;20218;-83
2022/06/03 23:13:48;;;;;;;3.40;2.83;;;;;17.60;101231.00;;;;10439530;28;20645;-83
2022/06/03 23:19:02;;;;;;;3.53;3.10;;;;;17.60;101229.00;;;;10456708;28;20210;-82
2022/06/03 23:24:05;;;;;;;3.40;3.10;;;;;17.60;101223.00;;;;10414007;28;20305;-83
2022/06/03 23:29:07;;;;;;;6.80;2.87;;;;;17.60;101228.00;;;;10431479;28;20205;-83
2022/06/03 23:34:10;;;;;;;6.73;3.27;;;;;17.60;101220.00;;;;10454967;28;20205;-81
2022/06/03 23:39:12;;;;;;;4.10;2.80;;;;;17.70;101239.00;;;;10440520;28;20220;-82
2022/06/03 23:49:35;;;;;;;3.30;2.50;;;;;17.60;101230.00;;;;10472454;28;20599;-83
2022/06/03 23:54:37;;;;;;;4.53;3.00;;;;;17.70;101232.00;;;;10472096;28;20228;-83
2022/06/03 23:59:39;;;;;;;4.05;2.08;;;;;17.70;101230.00;;;;10471400;28;20214;-83
